createdAt,value
2022-12-23T00:00:56.552Z,10.68
2022-12-23T00:01:56.683Z,10.75
2022-12-23T00:02:56.973Z,10.81
2022-12-23T00:03:59.642Z,10.68
2022-12-23T00:04:56.829Z,10.68
2022-12-23T00:05:56.672Z,10.7
2022-12-23T00:06:56.576Z,10.76
2022-12-23T00:07:56.478Z,10.72
2022-12-23T00:08:56.557Z,10.71
2022-12-23T00:09:56.820Z,10.7
2022-12-23T00:10:56.648Z,10.6
2022-12-23T00:11:56.441Z,10.57
2022-12-23T00:12:56.945Z,10.58
2022-12-23T00:13:56.666Z,10.66
2022-12-23T00:15:02.552Z,10.65
2022-12-23T00:15:56.601Z,10.64
2022-12-23T00:16:56.551Z,10.63
2022-12-23T00:17:56.483Z,10.54
2022-12-23T00:18:56.624Z,10.56
2022-12-23T00:19:56.828Z,10.58
2022-12-23T00:20:56.480Z,10.61
2022-12-23T00:21:56.459Z,10.61
2022-12-23T00:22:56.460Z,10.61
2022-12-23T00:23:56.454Z,10.61
2022-12-23T00:24:56.895Z,10.63
2022-12-23T00:25:59.461Z,10.69
2022-12-23T00:26:56.534Z,10.68
2022-12-23T00:27:56.940Z,10.64
2022-12-23T00:28:56.653Z,10.63
2022-12-23T00:29:56.902Z,10.59
2022-12-23T00:30:56.598Z,10.61
2022-12-23T00:31:56.630Z,10.72
2022-12-23T00:32:56.536Z,10.71
2022-12-23T00:33:56.714Z,10.67
2022-12-23T00:34:56.919Z,10.66
2022-12-23T00:35:56.730Z,10.58
2022-12-23T00:36:59.501Z,10.56
2022-12-23T00:37:56.548Z,10.53
2022-12-23T00:38:56.469Z,10.55
2022-12-23T00:39:59.908Z,10.68
2022-12-23T00:40:56.561Z,10.59
2022-12-23T00:41:56.630Z,10.53
2022-12-23T00:42:56.824Z,10.54
2022-12-23T00:43:56.593Z,10.61
2022-12-23T00:44:56.829Z,10.57
2022-12-23T00:45:56.640Z,10.61
2022-12-23T00:46:56.470Z,10.59
2022-12-23T00:47:59.557Z,10.62
2022-12-23T00:48:56.535Z,10.67
2022-12-23T00:49:57.565Z,10.64
2022-12-23T00:50:56.686Z,10.59
2022-12-23T00:51:56.671Z,10.7
2022-12-23T00:52:56.651Z,10.74
2022-12-23T00:53:56.449Z,10.7
2022-12-23T00:54:56.912Z,10.66
2022-12-23T00:55:56.582Z,10.63
2022-12-23T00:56:56.545Z,10.58
2022-12-23T00:57:56.964Z,10.61
2022-12-23T00:58:56.843Z,10.62
2022-12-23T00:59:56.458Z,10.59
2022-12-23T01:00:56.762Z,10.63
2022-12-23T01:01:56.964Z,10.66
2022-12-23T01:02:56.731Z,10.66
2022-12-23T01:04:02.525Z,10.68
2022-12-23T01:04:56.685Z,10.68
2022-12-23T01:05:56.907Z,10.76
2022-12-23T01:06:56.667Z,10.77
2022-12-23T01:07:56.537Z,10.78
2022-12-23T01:08:56.847Z,10.73
2022-12-23T01:09:56.501Z,10.74
2022-12-23T01:10:56.475Z,10.73
2022-12-23T01:11:56.441Z,10.75
2022-12-23T01:12:56.612Z,10.78
2022-12-23T01:13:56.917Z,10.73
2022-12-23T01:14:59.653Z,10.7
2022-12-23T01:15:56.540Z,10.76
2022-12-23T01:16:56.518Z,10.7
2022-12-23T01:17:56.568Z,10.7
2022-12-23T01:18:56.852Z,10.69
2022-12-23T01:19:56.552Z,10.66
2022-12-23T01:20:56.843Z,10.69
2022-12-23T01:21:56.621Z,10.68
2022-12-23T01:22:56.548Z,10.78
2022-12-23T01:23:56.928Z,10.8
2022-12-23T01:24:56.655Z,10.77
2022-12-23T01:25:56.450Z,10.85
2022-12-23T01:26:56.475Z,10.76
2022-12-23T01:27:56.596Z,10.84
2022-12-23T01:28:56.836Z,10.72
2022-12-23T01:29:56.540Z,10.7
2022-12-23T01:30:59.570Z,10.67
2022-12-23T01:31:56.766Z,10.73
2022-12-23T01:32:56.509Z,10.66
2022-12-23T01:33:56.922Z,10.65
2022-12-23T01:34:56.588Z,10.62
2022-12-23T01:35:56.916Z,10.61
2022-12-23T01:36:56.466Z,10.61
2022-12-23T01:37:56.588Z,10.59
2022-12-23T01:38:56.840Z,10.56
2022-12-23T01:39:56.658Z,10.56
2022-12-23T01:40:56.535Z,10.56
2022-12-23T01:41:59.801Z,10.53
2022-12-23T01:42:56.476Z,10.54
2022-12-23T01:43:56.912Z,10.64
2022-12-23T01:44:56.523Z,10.67
2022-12-23T01:45:56.743Z,10.7
2022-12-23T01:46:56.498Z,10.72
2022-12-23T01:47:56.549Z,10.74
2022-12-23T01:48:56.836Z,10.7
2022-12-23T01:49:56.552Z,10.73
2022-12-23T01:50:56.911Z,10.77
2022-12-23T01:51:56.658Z,10.77
2022-12-23T01:53:06.520Z,10.73
2022-12-23T01:53:56.839Z,10.7
2022-12-23T01:54:56.567Z,10.69
2022-12-23T01:55:56.517Z,10.69
2022-12-23T01:56:56.587Z,10.66
2022-12-23T01:57:56.572Z,10.67
2022-12-23T01:58:56.847Z,10.66
2022-12-23T01:59:56.561Z,10.63
2022-12-23T02:00:56.686Z,10.63
2022-12-23T02:01:56.704Z,10.61
2022-12-23T02:02:56.773Z,10.56
2022-12-23T02:04:02.542Z,10.59
2022-12-23T02:04:56.552Z,10.64
2022-12-23T02:05:56.841Z,10.62
2022-12-23T02:06:56.469Z,10.62
2022-12-23T02:07:56.469Z,10.67
2022-12-23T02:08:56.839Z,10.63
2022-12-23T02:09:56.563Z,10.6
2022-12-23T02:10:56.471Z,10.6
2022-12-23T02:11:56.644Z,10.67
2022-12-23T02:12:56.700Z,10.62
2022-12-23T02:13:56.844Z,10.59
2022-12-23T02:14:56.620Z,10.57
2022-12-23T02:15:56.556Z,10.6
2022-12-23T02:16:56.659Z,10.58
2022-12-23T02:17:56.538Z,10.6
2022-12-23T02:18:56.909Z,10.6
2022-12-23T02:19:59.493Z,10.61
2022-12-23T02:20:56.833Z,10.62
2022-12-23T02:21:56.572Z,10.67
2022-12-23T02:22:56.476Z,10.73
2022-12-23T02:23:56.962Z,10.73
2022-12-23T02:24:56.653Z,10.72
2022-12-23T02:25:56.459Z,10.67
2022-12-23T02:26:56.549Z,10.66
2022-12-23T02:27:56.475Z,10.63
2022-12-23T02:28:56.913Z,10.66
2022-12-23T02:29:56.560Z,10.68
2022-12-23T02:30:59.653Z,10.63
2022-12-23T02:31:56.530Z,10.72
2022-12-23T02:32:56.594Z,10.71
2022-12-23T02:33:56.835Z,10.65
2022-12-23T02:34:56.554Z,10.63
2022-12-23T02:35:56.916Z,10.59
2022-12-23T02:36:56.516Z,10.54
2022-12-23T02:37:56.596Z,10.57
2022-12-23T02:38:56.960Z,10.6
2022-12-23T02:39:56.539Z,10.56
2022-12-23T02:40:56.587Z,10.55
2022-12-23T02:41:59.499Z,10.5
2022-12-23T02:42:56.563Z,10.54
2022-12-23T02:43:56.946Z,10.55
2022-12-23T02:44:56.642Z,10.57
2022-12-23T02:45:56.484Z,10.51
2022-12-23T02:46:56.585Z,10.5
2022-12-23T02:47:56.479Z,10.47
2022-12-23T02:48:56.916Z,10.43
2022-12-23T02:49:56.644Z,10.46
2022-12-23T02:50:56.929Z,10.42
2022-12-23T02:51:56.680Z,10.42
2022-12-23T02:52:59.588Z,10.49
2022-12-23T02:53:56.858Z,10.52
2022-12-23T02:54:56.673Z,10.47
2022-12-23T02:55:56.469Z,10.48
2022-12-23T02:56:56.469Z,10.45
2022-12-23T02:57:56.457Z,10.51
2022-12-23T02:58:56.847Z,10.53
2022-12-23T02:59:56.628Z,10.58
2022-12-23T03:00:56.534Z,10.56
2022-12-23T03:01:56.717Z,10.58
2022-12-23T03:02:56.691Z,10.6
2022-12-23T03:03:57.035Z,10.61
2022-12-23T03:04:56.557Z,10.63
2022-12-23T03:05:56.853Z,10.66
2022-12-23T03:06:56.473Z,10.62
2022-12-23T03:07:56.466Z,10.59
2022-12-23T03:08:59.911Z,10.61
2022-12-23T03:09:56.664Z,10.62
2022-12-23T03:10:56.601Z,10.56
2022-12-23T03:11:56.624Z,10.61
2022-12-23T03:12:56.589Z,10.62
2022-12-23T03:13:56.970Z,10.62
2022-12-23T03:14:56.465Z,10.59
2022-12-23T03:15:56.651Z,10.57
2022-12-23T03:16:56.542Z,10.57
2022-12-23T03:17:56.467Z,10.56
2022-12-23T03:18:56.953Z,10.54
2022-12-23T03:19:59.498Z,10.56
2022-12-23T03:20:56.841Z,10.57
2022-12-23T03:21:56.477Z,10.54
2022-12-23T03:22:56.544Z,10.52
2022-12-23T03:23:56.911Z,10.53
2022-12-23T03:24:56.661Z,10.6
2022-12-23T03:25:56.583Z,10.62
2022-12-23T03:26:56.458Z,10.58
2022-12-23T03:27:56.469Z,10.55
2022-12-23T03:28:56.915Z,10.55
2022-12-23T03:29:56.526Z,10.53
2022-12-23T03:30:59.615Z,10.47
2022-12-23T03:31:56.618Z,10.51
2022-12-23T03:32:56.561Z,10.53
2022-12-23T03:33:56.951Z,10.52
2022-12-23T03:34:56.569Z,10.5
2022-12-23T03:35:56.915Z,10.47
2022-12-23T03:36:56.562Z,10.51
2022-12-23T03:37:56.470Z,10.51
2022-12-23T03:38:56.930Z,10.47
2022-12-23T03:39:56.568Z,10.45
2022-12-23T03:40:56.455Z,10.43
2022-12-23T03:41:56.446Z,10.46
2022-12-23T03:42:56.450Z,10.44
2022-12-23T03:43:56.563Z,10.41
2022-12-23T03:45:28.402Z,10.36
2022-12-23T03:45:56.574Z,10.34
2022-12-23T03:46:56.480Z,10.35
2022-12-23T03:47:56.480Z,10.29
2022-12-23T03:48:56.842Z,10.31
2022-12-23T03:49:56.469Z,10.28
2022-12-23T03:50:56.922Z,10.33
2022-12-23T03:51:59.568Z,10.32
2022-12-23T03:52:56.557Z,10.33
2022-12-23T03:53:56.918Z,10.37
2022-12-23T03:54:56.602Z,10.35
2022-12-23T03:55:56.673Z,10.33
2022-12-23T03:56:56.465Z,10.28
2022-12-23T03:57:56.571Z,10.19
2022-12-23T03:58:56.921Z,10.18
2022-12-23T03:59:56.612Z,10.07
2022-12-23T04:00:56.470Z,9.95
2022-12-23T04:01:56.627Z,10
2022-12-23T04:02:56.664Z,9.99
2022-12-23T04:03:56.898Z,9.97
2022-12-23T04:04:56.684Z,9.93
2022-12-23T04:05:56.992Z,9.97
2022-12-23T04:06:56.630Z,10.01
2022-12-23T04:07:59.547Z,9.99
2022-12-23T04:08:56.937Z,10.01
2022-12-23T04:09:56.561Z,10.01
2022-12-23T04:10:56.588Z,10.1
2022-12-23T04:11:56.524Z,10.14
2022-12-23T04:12:56.563Z,10.14
2022-12-23T04:13:56.835Z,10.1
2022-12-23T04:14:56.479Z,10.11
2022-12-23T04:15:56.652Z,10
2022-12-23T04:16:56.565Z,10.02
2022-12-23T04:17:56.570Z,10.05
2022-12-23T04:19:02.514Z,10.12
2022-12-23T04:19:56.551Z,10.14
2022-12-23T04:20:56.841Z,10.14
2022-12-23T04:21:56.651Z,10.21
2022-12-23T04:22:56.638Z,10.22
2022-12-23T04:23:56.915Z,10.22
2022-12-23T04:24:56.618Z,10.2
2022-12-23T04:25:56.604Z,10.22
2022-12-23T04:26:56.671Z,10.2
2022-12-23T04:27:56.521Z,10.12
2022-12-23T04:28:56.927Z,10.06
2022-12-23T04:29:59.494Z,10.04
2022-12-23T04:30:56.750Z,10.02
2022-12-23T04:31:56.590Z,9.98
2022-12-23T04:32:56.471Z,9.91
2022-12-23T04:33:56.922Z,9.85
2022-12-23T04:34:56.573Z,9.76
2022-12-23T04:35:56.910Z,9.68
2022-12-23T04:36:56.550Z,9.62
2022-12-23T04:37:56.605Z,9.53
2022-12-23T04:38:56.844Z,9.43
2022-12-23T04:39:56.504Z,9.4
2022-12-23T04:40:56.463Z,9.39
2022-12-23T04:41:56.558Z,9.44
2022-12-23T04:42:56.562Z,9.41
2022-12-23T04:43:56.944Z,9.37
2022-12-23T04:44:56.654Z,9.37
2022-12-23T04:45:59.491Z,9.35
2022-12-23T04:46:56.655Z,9.26
2022-12-23T04:47:56.645Z,9.25
2022-12-23T04:48:56.844Z,9.24
2022-12-23T04:49:56.658Z,9.24
2022-12-23T04:50:56.872Z,9.24
2022-12-23T04:51:59.457Z,9.2
2022-12-23T04:52:56.875Z,9.18
2022-12-23T04:53:56.459Z,9.18
2022-12-23T04:54:56.657Z,9.21
2022-12-23T04:55:56.618Z,9.2
2022-12-23T04:56:56.478Z,9.22
2022-12-23T04:57:56.840Z,9.18
2022-12-23T04:58:56.463Z,9.21
2022-12-23T04:59:56.450Z,9.25
2022-12-23T05:00:56.512Z,9.27
2022-12-23T05:01:56.713Z,9.29
2022-12-23T05:03:02.606Z,9.33
2022-12-23T05:03:56.568Z,9.39
2022-12-23T05:04:56.692Z,9.37
2022-12-23T05:05:56.748Z,9.44
2022-12-23T05:06:56.444Z,9.5
2022-12-23T05:07:56.836Z,9.53
2022-12-23T05:08:56.574Z,9.59
2022-12-23T05:09:56.621Z,9.66
2022-12-23T05:10:56.496Z,9.69
2022-12-23T05:11:56.555Z,9.71
2022-12-23T05:12:56.918Z,9.64
2022-12-23T05:13:59.677Z,9.72
2022-12-23T05:14:56.645Z,9.76
2022-12-23T05:15:56.622Z,9.74
2022-12-23T05:16:59.541Z,9.72
2022-12-23T05:17:56.918Z,9.74
2022-12-23T05:18:56.531Z,9.77
2022-12-23T05:19:59.458Z,9.76
2022-12-23T05:20:56.968Z,9.76
2022-12-23T05:21:56.480Z,9.75
2022-12-23T05:22:56.843Z,9.75
2022-12-23T05:23:56.634Z,9.79
2022-12-23T05:24:56.661Z,9.79
2022-12-23T05:25:56.460Z,9.79
2022-12-23T05:27:00.166Z,9.77
2022-12-23T05:27:56.912Z,9.81
2022-12-23T05:28:56.672Z,9.83
2022-12-23T05:29:56.640Z,9.89
2022-12-23T05:30:59.547Z,9.88
2022-12-23T05:31:56.640Z,9.85
2022-12-23T05:32:56.971Z,9.88
2022-12-23T05:34:00.851Z,9.9
2022-12-23T05:34:56.474Z,9.9
2022-12-23T05:35:56.847Z,9.9
2022-12-23T05:36:56.455Z,9.89
2022-12-23T05:37:56.839Z,9.88
2022-12-23T05:38:56.530Z,9.92
2022-12-23T05:39:56.611Z,9.89
2022-12-23T05:40:56.665Z,9.79
2022-12-23T05:41:59.789Z,9.81
2022-12-23T05:42:56.750Z,9.82
2022-12-23T05:43:56.537Z,9.85
2022-12-23T05:44:56.540Z,9.81
2022-12-23T05:45:56.689Z,9.8
2022-12-23T05:46:56.465Z,9.88
2022-12-23T05:47:56.911Z,9.81
2022-12-23T05:48:56.572Z,9.83
2022-12-23T05:49:56.570Z,9.81
2022-12-23T05:50:56.870Z,9.95
2022-12-23T05:51:56.634Z,9.95
2022-12-23T05:52:56.851Z,9.95
2022-12-23T05:53:56.621Z,9.95
2022-12-23T05:54:56.660Z,9.98
2022-12-23T05:55:56.449Z,9.94
2022-12-23T05:56:56.580Z,9.97
2022-12-23T05:58:02.511Z,10
2022-12-23T05:58:56.552Z,10.01
2022-12-23T05:59:56.525Z,10.01
2022-12-23T06:00:56.609Z,10.07
2022-12-23T06:01:56.735Z,10.11
2022-12-23T06:02:57.301Z,10.14
2022-12-23T06:03:56.628Z,10.16
2022-12-23T06:04:56.479Z,10.15
2022-12-23T06:05:56.910Z,10.15
2022-12-23T06:06:56.549Z,10.15
2022-12-23T06:07:56.556Z,10.12
2022-12-23T06:08:59.963Z,10.06
2022-12-23T06:09:56.561Z,10.02
2022-12-23T06:10:56.441Z,9.85
2022-12-23T06:11:56.442Z,9.74
2022-12-23T06:12:56.918Z,9.59
2022-12-23T06:13:56.557Z,9.5
2022-12-23T06:14:56.516Z,9.47
2022-12-23T06:15:56.551Z,9.35
2022-12-23T06:16:56.677Z,9.31
2022-12-23T06:17:57.179Z,9.24
2022-12-23T06:18:56.625Z,9.17
2022-12-23T06:19:59.492Z,9.12
2022-12-23T06:20:56.842Z,9.1
2022-12-23T06:21:56.572Z,9.09
2022-12-23T06:22:56.847Z,9.13
2022-12-23T06:23:56.478Z,9.14
2022-12-23T06:24:56.493Z,9.12
2022-12-23T06:25:56.562Z,9.11
2022-12-23T06:26:57.276Z,9.09
2022-12-23T06:27:56.913Z,9.06
2022-12-23T06:28:56.651Z,9.04
2022-12-23T06:29:56.664Z,9.06
2022-12-23T06:30:59.505Z,8.98
2022-12-23T06:31:56.781Z,8.94
2022-12-23T06:32:56.845Z,8.92
2022-12-23T06:33:56.548Z,8.9
2022-12-23T06:34:56.596Z,8.85
2022-12-23T06:35:56.885Z,8.83
2022-12-23T06:36:56.480Z,8.85
2022-12-23T06:37:56.603Z,8.82
2022-12-23T06:38:56.637Z,8.79
2022-12-23T06:39:56.586Z,8.79
2022-12-23T06:40:56.541Z,8.74
2022-12-23T06:41:59.721Z,8.77
2022-12-23T06:42:56.837Z,8.81
2022-12-23T06:43:56.670Z,8.88
2022-12-23T06:44:56.549Z,8.92
2022-12-23T06:45:56.612Z,8.97
2022-12-23T06:46:56.480Z,8.99
2022-12-23T06:47:56.615Z,9.2
2022-12-23T06:48:56.457Z,9.29
2022-12-23T06:49:56.611Z,9.24
2022-12-23T06:50:56.848Z,9.32
2022-12-23T06:51:56.563Z,9.36
2022-12-23T06:53:02.532Z,9.41
2022-12-23T06:53:56.625Z,9.47
2022-12-23T06:54:56.525Z,9.53
2022-12-23T06:55:56.458Z,9.58
2022-12-23T06:56:56.456Z,9.59
2022-12-23T06:57:56.838Z,9.56
2022-12-23T06:58:56.470Z,9.62
2022-12-23T06:59:56.470Z,9.61
2022-12-23T07:00:56.471Z,9.62
2022-12-23T07:01:56.727Z,9.64
2022-12-23T07:02:56.907Z,9.67
2022-12-23T07:03:59.480Z,9.67
2022-12-23T07:04:56.457Z,9.71
2022-12-23T07:05:56.852Z,9.79
2022-12-23T07:06:56.678Z,9.77
2022-12-23T07:07:56.849Z,9.8
2022-12-23T07:08:56.565Z,9.8
2022-12-23T07:09:56.499Z,9.82
2022-12-23T07:10:56.478Z,9.85
2022-12-23T07:11:56.568Z,9.88
2022-12-23T07:12:56.835Z,9.89
2022-12-23T07:13:56.663Z,9.92
2022-12-23T07:14:59.484Z,9.94
2022-12-23T07:15:56.648Z,9.98
2022-12-23T07:16:56.559Z,10.1
2022-12-23T07:17:56.835Z,10.14
2022-12-23T07:18:56.551Z,10.14
2022-12-23T07:19:56.457Z,10.15
2022-12-23T07:20:56.872Z,10.16
2022-12-23T07:21:56.915Z,10.15
2022-12-23T07:22:56.563Z,10.2
2022-12-23T07:23:56.591Z,10.19
2022-12-23T07:24:56.517Z,10.19
2022-12-23T07:25:59.572Z,10.23
2022-12-23T07:26:56.848Z,10.26
2022-12-23T07:27:56.686Z,10.29
2022-12-23T07:28:56.573Z,10.32
2022-12-23T07:29:56.546Z,10.29
2022-12-23T07:30:56.465Z,10.2
2022-12-23T07:31:56.939Z,10.16
2022-12-23T07:32:56.482Z,10.13
2022-12-23T07:33:56.543Z,10.15
2022-12-23T07:34:56.549Z,10.15
2022-12-23T07:35:56.906Z,10.22
2022-12-23T07:36:56.869Z,10.27
2022-12-23T07:37:56.493Z,10.28
2022-12-23T07:38:56.462Z,10.28
2022-12-23T07:39:56.539Z,10.28
2022-12-23T07:40:56.503Z,10.26
2022-12-23T07:42:24.869Z,10.26
2022-12-23T07:42:56.679Z,10.28
2022-12-23T07:43:56.470Z,10.3
2022-12-23T07:44:56.617Z,10.31
2022-12-23T07:46:00.311Z,10.3
2022-12-23T07:46:56.834Z,10.33
2022-12-23T07:47:56.457Z,10.32
2022-12-23T07:48:56.467Z,10.3
2022-12-23T07:49:56.460Z,10.34
2022-12-23T07:50:56.850Z,10.33
2022-12-23T07:51:56.842Z,10.38
2022-12-23T07:52:56.473Z,10.38
2022-12-23T07:53:56.467Z,10.4
2022-12-23T07:54:56.472Z,10.37
2022-12-23T07:55:56.971Z,10.31
2022-12-23T07:56:56.849Z,10.34
2022-12-23T07:57:59.636Z,10.39
2022-12-23T07:58:56.650Z,10.42
2022-12-23T07:59:56.972Z,10.49
2022-12-23T08:00:56.578Z,10.47
2022-12-23T08:01:57.213Z,10.47
2022-12-23T08:02:56.700Z,10.5
2022-12-23T08:03:56.615Z,10.55
2022-12-23T08:04:56.588Z,10.53
2022-12-23T08:05:57.067Z,10.54
2022-12-23T08:06:56.851Z,10.57
2022-12-23T08:07:56.596Z,10.56
2022-12-23T08:08:56.633Z,10.55
2022-12-23T08:09:56.469Z,10.55
2022-12-23T08:10:56.474Z,10.56
2022-12-23T08:11:56.913Z,10.6
2022-12-23T08:12:56.528Z,10.65
2022-12-23T08:13:59.570Z,10.68
2022-12-23T08:14:56.572Z,10.69
2022-12-23T08:15:56.467Z,10.72
2022-12-23T08:16:56.999Z,10.72
2022-12-23T08:17:56.656Z,10.71
2022-12-23T08:18:56.565Z,10.73
2022-12-23T08:19:56.455Z,10.75
2022-12-23T08:20:56.838Z,10.78
2022-12-23T08:21:56.834Z,10.82
2022-12-23T08:22:56.497Z,10.84
2022-12-23T08:23:56.452Z,10.85
2022-12-23T08:24:59.605Z,10.84
2022-12-23T08:25:56.559Z,10.84
2022-12-23T08:26:56.909Z,10.81
2022-12-23T08:27:56.528Z,10.8
2022-12-23T08:28:56.482Z,10.85
2022-12-23T08:29:56.697Z,10.86
2022-12-23T08:30:56.644Z,10.84
2022-12-23T08:31:56.958Z,10.83
2022-12-23T08:32:56.575Z,10.82
2022-12-23T08:33:56.442Z,10.85
2022-12-23T08:34:56.546Z,10.88
2022-12-23T08:36:02.600Z,10.91
2022-12-23T08:36:56.833Z,10.96
2022-12-23T08:37:56.723Z,10.91
2022-12-23T08:38:56.670Z,10.86
2022-12-23T08:39:56.636Z,10.93
2022-12-23T08:40:56.618Z,10.98
2022-12-23T08:41:56.836Z,10.99
2022-12-23T08:42:56.540Z,11.02
2022-12-23T08:43:56.475Z,10.96
2022-12-23T08:44:56.470Z,10.96
2022-12-23T08:45:56.526Z,10.92
2022-12-23T08:47:02.558Z,10.94
2022-12-23T08:47:56.664Z,10.98
2022-12-23T08:48:56.660Z,10.96
2022-12-23T08:49:56.461Z,10.92
2022-12-23T08:50:57.082Z,10.93
2022-12-23T08:51:57.574Z,10.93
2022-12-23T08:52:56.621Z,10.94
2022-12-23T08:54:00.156Z,10.99
2022-12-23T08:54:56.846Z,11.01
2022-12-23T08:55:56.540Z,11.03
2022-12-23T08:56:56.910Z,11.01
2022-12-23T08:57:59.490Z,11.06
2022-12-23T08:58:56.641Z,11.08
2022-12-23T08:59:56.604Z,11.06
2022-12-23T09:00:56.528Z,11.08
2022-12-23T09:01:57.056Z,11.1
2022-12-23T09:02:56.799Z,11.09
2022-12-23T09:03:56.536Z,11.08
2022-12-23T09:04:56.637Z,11.1
2022-12-23T09:05:56.842Z,11.07
2022-12-23T09:06:56.831Z,10.98
2022-12-23T09:07:56.683Z,11.04
2022-12-23T09:08:59.471Z,11.06
2022-12-23T09:09:56.711Z,11.15
2022-12-23T09:10:56.536Z,11.19
2022-12-23T09:11:56.563Z,11.19
2022-12-23T09:12:58.087Z,11.21
2022-12-23T09:13:56.477Z,11.24
2022-12-23T09:14:56.601Z,11.23
2022-12-23T09:15:56.526Z,11.23
2022-12-23T09:16:56.977Z,11.31
2022-12-23T09:17:56.551Z,11.32
2022-12-23T09:18:56.672Z,11.33
2022-12-23T09:19:59.482Z,11.31
2022-12-23T09:20:56.862Z,11.36
2022-12-23T09:21:56.856Z,11.45
2022-12-23T09:22:56.651Z,11.46
2022-12-23T09:23:56.614Z,11.45
2022-12-23T09:25:01.292Z,11.42
2022-12-23T09:25:56.583Z,11.42
2022-12-23T09:26:56.925Z,11.39
2022-12-23T09:27:56.563Z,11.36
2022-12-23T09:28:56.455Z,11.32
2022-12-23T09:29:56.644Z,11.31
2022-12-23T09:30:59.482Z,11.34
2022-12-23T09:31:56.972Z,11.38
2022-12-23T09:32:56.655Z,11.49
2022-12-23T09:33:56.679Z,11.55
2022-12-23T09:34:56.473Z,11.56
2022-12-23T09:35:57.004Z,11.55
2022-12-23T09:36:56.851Z,11.62
2022-12-23T09:37:56.546Z,11.65
2022-12-23T09:38:56.678Z,11.65
2022-12-23T09:39:56.579Z,11.73
2022-12-23T09:40:56.476Z,11.77
2022-12-23T09:42:02.482Z,11.8
2022-12-23T09:42:56.653Z,11.83
2022-12-23T09:43:56.484Z,11.79
2022-12-23T09:44:56.480Z,11.81
2022-12-23T09:45:56.614Z,11.78
2022-12-23T09:46:56.997Z,11.76
2022-12-23T09:47:56.466Z,11.77
2022-12-23T09:48:56.467Z,11.77
2022-12-23T09:49:56.535Z,11.78
2022-12-23T09:50:56.843Z,11.76
2022-12-23T09:51:56.514Z,11.83
2022-12-23T09:52:56.598Z,11.87
2022-12-23T09:53:56.491Z,11.85
2022-12-23T09:54:56.550Z,11.97
2022-12-23T09:55:56.458Z,12.01
2022-12-23T09:56:56.719Z,12.01
2022-12-23T09:57:59.469Z,11.97
2022-12-23T09:58:56.539Z,12.01
2022-12-23T09:59:56.583Z,11.99
2022-12-23T10:00:56.598Z,12.04
2022-12-23T10:01:57.081Z,12.04
2022-12-23T10:02:56.923Z,12.11
2022-12-23T10:03:59.536Z,12.17
2022-12-23T10:04:56.480Z,12.17
2022-12-23T10:05:56.855Z,12.18
2022-12-23T10:07:02.675Z,12.16
2022-12-23T10:07:56.467Z,12.12
2022-12-23T10:08:56.587Z,12.12
2022-12-23T10:09:56.605Z,12.19
2022-12-23T10:10:56.567Z,12.18
2022-12-23T10:11:56.916Z,12.25
2022-12-23T10:12:56.577Z,12.25
2022-12-23T10:13:56.478Z,12.23
2022-12-23T10:14:59.504Z,12.2
2022-12-23T10:15:56.671Z,12.16
2022-12-23T10:16:57.175Z,12.15
2022-12-23T10:17:56.619Z,12.18
2022-12-23T10:18:56.546Z,12.1
2022-12-23T10:36:46.797Z,11.95
2022-12-23T10:39:24.865Z,11.92
2022-12-23T10:40:24.813Z,11.93
2022-12-23T10:41:24.948Z,11.94
2022-12-23T10:42:25.191Z,11.92
2022-12-23T10:43:25.029Z,11.89
2022-12-23T10:44:27.936Z,11.91
2022-12-23T10:45:25.013Z,11.93
2022-12-23T10:46:24.966Z,11.96
2022-12-23T10:47:25.251Z,11.97
2022-12-23T10:48:24.898Z,11.96
2022-12-23T10:49:24.820Z,11.93
2022-12-23T10:50:25.183Z,11.93
2022-12-23T10:51:24.833Z,11.93
2022-12-23T10:52:25.192Z,11.87
2022-12-23T10:53:24.869Z,11.8
2022-12-23T10:54:24.809Z,11.77
2022-12-23T10:55:33.278Z,11.73
2022-12-23T10:56:24.988Z,11.76
2022-12-23T10:57:25.299Z,11.73
2022-12-23T10:58:24.867Z,11.68
2022-12-23T10:59:24.834Z,11.66
2022-12-23T11:00:24.988Z,11.65
2022-12-23T11:01:27.931Z,11.67
2022-12-23T11:02:25.329Z,11.69
2022-12-23T11:03:24.856Z,11.69
2022-12-23T11:04:24.899Z,11.71
2022-12-23T11:05:25.175Z,11.74
2022-12-23T11:06:25.178Z,11.7
2022-12-23T11:07:44.789Z,11.65
2022-12-23T11:08:24.962Z,11.6
2022-12-23T11:09:25.040Z,11.62
2022-12-23T11:10:24.880Z,11.59
2022-12-23T11:11:25.197Z,11.6
2022-12-23T11:12:27.884Z,11.6
2022-12-23T11:13:25.021Z,11.62
2022-12-23T11:14:24.908Z,11.61
2022-12-23T11:15:24.918Z,11.56
2022-12-23T11:16:25.341Z,11.52
2022-12-23T11:17:24.825Z,11.52
2022-12-23T11:18:24.926Z,11.5
2022-12-23T11:19:25.002Z,11.48
2022-12-23T11:20:25.343Z,11.51
2022-12-23T11:21:24.826Z,11.55
2022-12-23T11:22:24.859Z,11.57
2022-12-23T11:23:24.872Z,11.67
2022-12-23T11:24:24.823Z,11.69
2022-12-23T11:25:25.027Z,11.64
2022-12-23T11:26:25.184Z,11.64
2022-12-23T11:27:25.043Z,11.64
2022-12-23T11:28:28.036Z,11.64
2022-12-23T11:29:24.914Z,11.58
2022-12-23T11:30:24.814Z,11.56
2022-12-23T11:31:25.345Z,11.57
2022-12-23T11:32:25.006Z,11.55
2022-12-23T11:33:24.818Z,11.56
2022-12-23T11:34:24.906Z,11.59
2022-12-23T11:35:25.436Z,11.62
2022-12-23T11:36:25.181Z,11.72
2022-12-23T11:37:24.959Z,11.73
2022-12-23T11:38:24.929Z,11.64
2022-12-23T11:39:24.915Z,11.64
2022-12-23T11:40:24.795Z,11.62
2022-12-23T11:41:25.273Z,11.55
2022-12-23T11:42:24.877Z,11.51
2022-12-23T11:43:24.926Z,11.48
2022-12-23T11:44:27.822Z,11.43
2022-12-23T11:45:24.944Z,11.52
2022-12-23T11:46:25.421Z,11.54
2022-12-23T11:47:24.880Z,11.5
2022-12-23T11:48:24.827Z,11.47
2022-12-23T11:49:24.810Z,11.55
2022-12-23T11:50:30.877Z,11.6
2022-12-23T11:51:24.920Z,11.66
2022-12-23T11:52:24.944Z,11.68
2022-12-23T11:53:25.088Z,11.7
2022-12-23T11:54:25.017Z,11.68
2022-12-23T11:55:24.877Z,11.7
2022-12-23T11:56:25.283Z,11.7
2022-12-23T11:57:24.918Z,11.7
2022-12-23T11:58:24.873Z,11.65
2022-12-23T11:59:24.802Z,11.62
2022-12-23T12:00:24.817Z,11.63
2022-12-23T12:01:28.232Z,11.59
2022-12-23T12:02:25.105Z,11.64
2022-12-23T12:03:25.028Z,11.65
2022-12-23T12:04:24.947Z,11.71
2022-12-23T12:05:25.183Z,11.75
2022-12-23T12:06:25.297Z,11.7
2022-12-23T12:07:24.845Z,11.74
2022-12-23T12:08:24.946Z,11.73
2022-12-23T12:09:25.055Z,11.69
2022-12-23T12:10:24.971Z,11.63
2022-12-23T12:11:25.272Z,11.56
2022-12-23T12:12:27.943Z,11.58
2022-12-23T12:13:24.904Z,11.57
2022-12-23T12:14:24.832Z,11.56
2022-12-23T12:15:24.929Z,11.54
2022-12-23T12:16:25.218Z,11.54
2022-12-23T12:17:24.874Z,11.55
2022-12-23T12:18:24.819Z,11.52
2022-12-23T12:19:24.797Z,11.51
2022-12-23T12:20:25.306Z,11.5
2022-12-23T12:21:24.918Z,11.49
2022-12-23T12:22:24.801Z,11.47
2022-12-23T12:23:27.887Z,11.45
2022-12-23T12:24:24.994Z,11.43
2022-12-23T12:25:24.880Z,11.46
2022-12-23T12:26:24.960Z,11.43
2022-12-23T12:27:24.980Z,11.45
2022-12-23T12:28:24.830Z,11.4
2022-12-23T12:29:24.818Z,11.37
2022-12-23T12:30:25.024Z,11.41
2022-12-23T12:31:25.299Z,11.4
2022-12-23T12:32:25.019Z,11.37
2022-12-23T12:33:24.857Z,11.34
2022-12-23T12:34:27.922Z,11.36
2022-12-23T12:35:25.206Z,11.39
2022-12-23T12:36:25.204Z,11.42
2022-12-23T12:37:24.894Z,11.41
2022-12-23T12:38:24.820Z,11.49
2022-12-23T12:39:24.893Z,11.52
2022-12-23T12:40:24.937Z,11.56
2022-12-23T12:41:25.268Z,11.57
2022-12-23T12:42:24.904Z,11.62
2022-12-23T12:43:24.996Z,11.63
2022-12-23T12:44:24.889Z,11.68
2022-12-23T12:45:28.136Z,11.66
2022-12-23T12:46:25.320Z,11.65
2022-12-23T12:47:53.257Z,11.62
2022-12-23T12:48:24.806Z,11.7
2022-12-23T12:49:25.011Z,11.7
2022-12-23T12:50:25.286Z,11.7
2022-12-23T12:51:24.954Z,11.7
2022-12-23T12:52:24.824Z,11.7
2022-12-23T12:53:25.040Z,11.69
2022-12-23T12:54:24.803Z,11.71
2022-12-23T12:55:25.005Z,11.67
2022-12-23T12:56:30.951Z,11.71
2022-12-23T12:57:24.910Z,11.73
2022-12-23T12:58:24.816Z,11.71
2022-12-23T12:59:25.011Z,11.76
2022-12-23T13:00:24.834Z,11.78
2022-12-23T13:01:25.290Z,11.72
2022-12-23T13:02:24.834Z,11.77
2022-12-23T13:03:24.924Z,11.82
2022-12-23T13:04:24.816Z,11.81
2022-12-23T13:05:25.174Z,11.76
2022-12-23T13:06:25.189Z,11.68
2022-12-23T13:07:27.862Z,11.7
2022-12-23T13:08:24.903Z,11.73
2022-12-23T13:09:24.821Z,11.76
2022-12-23T13:10:24.909Z,11.75
2022-12-23T13:11:28.598Z,11.71
2022-12-23T13:12:24.937Z,11.72
2022-12-23T13:13:24.813Z,11.67
2022-12-23T13:14:24.964Z,11.68
2022-12-23T13:15:24.996Z,11.63
2022-12-23T13:16:25.349Z,11.63
2022-12-23T13:17:24.884Z,11.64
2022-12-23T13:18:27.901Z,11.67
2022-12-23T13:19:24.901Z,11.71